createdAt,value
2018-07-05T00:02:26.672Z,22.70
2018-07-05T00:05:06.445Z,22.70
2018-07-05T00:07:46.068Z,22.70
2018-07-05T00:10:25.801Z,22.70
2018-07-05T00:13:05.301Z,22.60
2018-07-05T00:15:45.004Z,22.60
2018-07-05T00:18:24.685Z,22.60
2018-07-05T00:21:04.342Z,22.60
2018-07-05T00:23:43.924Z,22.60
2018-07-05T00:26:23.591Z,22.60
2018-07-05T00:29:04.002Z,22.50
2018-07-05T00:34:34.191Z,22.50
2018-07-05T00:37:13.962Z,22.50
2018-07-05T00:39:53.733Z,22.50
2018-07-05T00:42:33.299Z,22.40
2018-07-05T00:45:12.823Z,22.40
2018-07-05T00:47:52.442Z,22.40
2018-07-05T00:53:05.822Z,22.40
2018-07-05T00:55:45.579Z,22.40
2018-07-05T00:58:25.290Z,22.30
2018-07-05T01:01:04.757Z,22.30
2018-07-05T01:03:44.358Z,22.30
2018-07-05T01:06:24.011Z,22.30
2018-07-05T01:09:03.929Z,22.30
2018-07-05T01:11:43.625Z,22.30
2018-07-05T01:14:23.213Z,22.20
2018-07-05T01:17:02.814Z,22.20
2018-07-05T01:19:42.414Z,22.20
2018-07-05T01:22:22.058Z,22.20
2018-07-05T01:25:01.686Z,22.10
2018-07-05T01:27:41.351Z,22.10
2018-07-05T01:30:21.030Z,22.10
2018-07-05T01:33:00.610Z,22.10
2018-07-05T01:35:40.285Z,22.10
2018-07-05T01:38:19.829Z,22.10
2018-07-05T01:40:59.604Z,22.00
2018-07-05T01:43:39.287Z,22.00
2018-07-05T01:46:19.090Z,22.00
2018-07-05T01:48:58.678Z,22.00
2018-07-05T01:51:38.308Z,22.00
2018-07-05T01:54:17.974Z,22.00
2018-07-05T01:56:57.683Z,22.00
2018-07-05T01:59:37.343Z,21.90
2018-07-05T02:02:17.105Z,21.90
2018-07-05T02:04:56.832Z,21.90
2018-07-05T02:07:36.398Z,21.90
2018-07-05T02:10:16.018Z,21.80
2018-07-05T02:12:55.792Z,21.80
2018-07-05T02:15:35.323Z,21.80
2018-07-05T02:18:14.838Z,21.80
2018-07-05T02:20:54.466Z,21.80
2018-07-05T02:23:34.262Z,21.80
2018-07-05T02:26:13.878Z,21.70
2018-07-05T02:28:53.609Z,21.70
2018-07-05T02:31:33.274Z,21.70
2018-07-05T02:34:13.046Z,21.70
2018-07-05T02:36:52.677Z,21.70
2018-07-05T02:39:37.809Z,21.70
2018-07-05T02:42:17.494Z,21.60
2018-07-05T02:44:57.206Z,21.60
2018-07-05T02:47:36.930Z,21.60
2018-07-05T02:52:50.265Z,21.60
2018-07-05T02:55:29.882Z,21.60
2018-07-05T02:58:09.585Z,21.60
2018-07-05T03:00:49.325Z,21.50
2018-07-05T03:03:29.412Z,21.50
2018-07-05T03:06:09.034Z,21.50
2018-07-05T03:08:48.799Z,21.50
2018-07-05T03:11:28.520Z,21.50
2018-07-05T03:14:08.263Z,21.50
2018-07-05T03:16:47.962Z,21.40
2018-07-05T03:19:27.683Z,21.40
2018-07-05T03:22:07.259Z,21.40
2018-07-05T03:24:46.974Z,21.40
2018-07-05T03:27:26.704Z,21.40
2018-07-05T03:30:06.467Z,21.40
2018-07-05T03:32:45.942Z,21.40
2018-07-05T03:35:25.678Z,21.40
2018-07-05T03:38:05.358Z,21.40
2018-07-05T03:40:44.993Z,21.30
2018-07-05T03:43:24.614Z,21.40
2018-07-05T03:46:04.342Z,21.30
2018-07-05T03:48:43.910Z,21.30
2018-07-05T03:51:23.522Z,21.30
2018-07-05T03:54:03.267Z,21.30
2018-07-05T03:56:42.990Z,21.30
2018-07-05T03:59:22.698Z,21.30
2018-07-05T04:02:02.395Z,21.30
2018-07-05T04:04:41.995Z,21.30
2018-07-05T04:07:21.641Z,21.30
2018-07-05T04:10:01.439Z,21.20
2018-07-05T04:12:41.078Z,21.20
2018-07-05T04:15:21.002Z,21.20
2018-07-05T04:18:00.563Z,21.20
2018-07-05T04:20:40.289Z,21.20
2018-07-05T04:23:19.964Z,20.90
2018-07-05T04:25:59.745Z,21.00
2018-07-05T04:28:39.233Z,20.80
2018-07-05T04:31:18.784Z,20.80
2018-07-05T04:33:58.547Z,20.90
2018-07-05T04:36:38.291Z,21.00
2018-07-05T04:39:17.938Z,21.10
2018-07-05T04:41:58.674Z,21.10
2018-07-05T04:44:38.347Z,21.10
2018-07-05T04:47:17.986Z,21.10
2018-07-05T04:49:57.736Z,21.10
2018-07-05T04:52:37.386Z,21.20
2018-07-05T04:55:17.093Z,21.10
2018-07-05T04:57:56.688Z,21.20
2018-07-05T05:00:36.435Z,21.10
2018-07-05T05:03:16.066Z,21.10
2018-07-05T05:05:55.694Z,21.20
2018-07-05T05:08:35.283Z,21.10
2018-07-05T05:11:14.911Z,21.10
2018-07-05T05:13:54.578Z,21.10
2018-07-05T05:16:34.302Z,21.10
2018-07-05T05:19:14.010Z,21.20
2018-07-05T05:21:53.875Z,21.20
2018-07-05T05:24:33.568Z,21.20
2018-07-05T05:27:13.284Z,21.20
2018-07-05T05:29:53.125Z,21.20
2018-07-05T05:32:32.794Z,21.20
2018-07-05T05:35:12.465Z,21.20
2018-07-05T05:37:52.120Z,21.20
2018-07-05T05:40:31.877Z,21.20
2018-07-05T05:43:11.674Z,21.10
2018-07-05T05:45:51.265Z,21.10
2018-07-05T05:48:30.972Z,21.10
2018-07-05T05:51:10.625Z,21.10
2018-07-05T05:53:50.304Z,21.20
2018-07-05T05:56:29.946Z,21.20
2018-07-05T05:59:09.469Z,21.20
2018-07-05T06:01:49.307Z,21.20
2018-07-05T06:04:28.971Z,21.20
2018-07-05T06:07:08.737Z,21.20
2018-07-05T06:09:48.455Z,21.20
2018-07-05T06:12:27.886Z,21.10
2018-07-05T06:15:07.659Z,21.10
2018-07-05T06:17:47.437Z,21.00
2018-07-05T06:20:27.179Z,21.10
2018-07-05T06:23:06.866Z,21.00
2018-07-05T06:25:46.680Z,21.00
2018-07-05T06:28:26.354Z,20.90
2018-07-05T06:31:05.963Z,20.90
2018-07-05T06:33:45.650Z,20.90
2018-07-05T06:36:25.263Z,21.00
2018-07-05T06:39:06.290Z,21.00
2018-07-05T06:41:46.668Z,21.00
2018-07-05T06:44:26.326Z,20.90
2018-07-05T06:47:06.003Z,20.90
2018-07-05T06:49:45.893Z,20.80
2018-07-05T06:52:25.742Z,20.90
2018-07-05T06:55:05.850Z,20.90
2018-07-05T06:57:45.407Z,21.00
2018-07-05T07:00:25.262Z,20.90
2018-07-05T07:03:04.826Z,20.90
2018-07-05T07:05:44.639Z,20.90
2018-07-05T07:08:24.359Z,20.90
2018-07-05T07:11:04.346Z,20.90
2018-07-05T07:13:43.978Z,20.90
2018-07-05T07:16:23.623Z,21.00
2018-07-05T07:19:03.183Z,20.90
2018-07-05T07:21:43.815Z,21.00
2018-07-05T07:24:23.455Z,21.00
2018-07-05T07:27:03.058Z,21.00
2018-07-05T07:29:42.835Z,21.00
2018-07-05T07:32:22.615Z,21.00
2018-07-05T07:35:02.130Z,21.00
2018-07-05T07:37:41.947Z,21.10
2018-07-05T07:40:22.155Z,21.10
2018-07-05T07:42:49.664Z,21.10
2018-07-05T07:45:16.984Z,21.20
2018-07-05T07:47:44.360Z,21.10
2018-07-05T07:50:11.634Z,21.20
2018-07-05T07:52:38.931Z,21.20
2018-07-05T07:55:06.408Z,21.20
2018-07-05T07:57:33.636Z,21.20
2018-07-05T08:00:00.854Z,21.20
2018-07-05T08:02:28.393Z,21.20
2018-07-05T08:04:55.936Z,21.20
2018-07-05T08:07:23.186Z,21.20
2018-07-05T08:09:50.528Z,21.20
2018-07-05T08:14:45.370Z,21.10
2018-07-05T08:17:12.600Z,21.00
2018-07-05T08:19:39.851Z,21.00
2018-07-05T08:22:07.126Z,21.00
2018-07-05T08:24:34.383Z,21.00
2018-07-05T08:27:01.640Z,21.00
2018-07-05T08:29:28.901Z,21.10
2018-07-05T08:31:56.118Z,21.20
2018-07-05T08:34:23.361Z,21.20
2018-07-05T08:36:50.719Z,21.20
2018-07-05T08:39:17.936Z,21.30
2018-07-05T08:41:46.411Z,21.20
2018-07-05T08:46:41.616Z,21.10
2018-07-05T08:49:08.888Z,21.10
2018-07-05T08:51:36.130Z,21.20
2018-07-05T08:54:03.367Z,21.20
2018-07-05T08:56:30.619Z,21.10
2018-07-05T08:58:57.954Z,21.20
2018-07-05T09:01:25.247Z,21.20
2018-07-05T09:03:52.506Z,21.30
2018-07-05T09:06:19.734Z,21.30
2018-07-05T09:08:46.987Z,21.40
2018-07-05T09:11:14.241Z,21.40
2018-07-05T09:13:41.585Z,21.30
2018-07-05T09:16:08.850Z,21.40
2018-07-05T09:18:36.256Z,21.40
2018-07-05T09:21:03.543Z,21.30
2018-07-05T09:23:30.972Z,21.40
2018-07-05T09:25:58.025Z,21.30
2018-07-05T09:28:25.339Z,21.40
2018-07-05T09:30:52.625Z,21.40
2018-07-05T09:33:19.878Z,21.50
2018-07-05T09:35:47.090Z,21.40
2018-07-05T09:38:14.338Z,21.40
2018-07-05T09:40:41.578Z,21.40
2018-07-05T09:43:08.794Z,21.50
2018-07-05T09:45:36.219Z,21.50
2018-07-05T09:48:03.626Z,21.50
2018-07-05T09:50:30.861Z,21.50
2018-07-05T09:52:58.310Z,21.50
2018-07-05T09:55:25.717Z,21.50
2018-07-05T09:57:52.950Z,21.50
2018-07-05T10:00:24.726Z,21.60
2018-07-05T10:02:51.980Z,21.60
2018-07-05T10:05:19.215Z,21.60
2018-07-05T10:07:46.449Z,21.60
2018-07-05T10:10:13.784Z,21.60
2018-07-05T10:12:41.199Z,21.60
2018-07-05T10:15:08.628Z,21.60
2018-07-05T10:17:36.052Z,21.60
2018-07-05T10:20:03.272Z,21.60
2018-07-05T10:22:30.718Z,21.50
2018-07-05T10:24:58.178Z,21.50
2018-07-05T10:27:25.963Z,21.60
2018-07-05T10:30:05.638Z,21.60
2018-07-05T10:32:45.591Z,21.60
2018-07-05T10:35:12.822Z,21.60
2018-07-05T10:37:40.066Z,21.70
2018-07-05T10:40:19.654Z,21.70
2018-07-05T10:42:59.486Z,21.70
2018-07-05T10:45:39.265Z,21.70
2018-07-05T10:48:19.174Z,21.70
2018-07-05T10:50:58.696Z,21.70
2018-07-05T10:53:38.304Z,21.70
2018-07-05T10:56:18.474Z,21.70
2018-07-05T10:58:58.243Z,21.70
2018-07-05T11:01:38.197Z,21.70
2018-07-05T11:04:18.025Z,21.70
2018-07-05T11:06:57.670Z,21.60
2018-07-05T11:09:37.529Z,21.60
2018-07-05T11:12:17.049Z,21.60
2018-07-05T11:14:56.682Z,21.60
2018-07-05T11:17:36.338Z,21.60
2018-07-05T11:20:16.135Z,21.60
2018-07-05T11:22:55.814Z,21.60
2018-07-05T11:25:35.611Z,21.60
2018-07-05T11:28:15.279Z,21.70
2018-07-05T11:30:55.023Z,21.70
2018-07-05T11:33:34.802Z,21.60
2018-07-05T11:36:14.529Z,21.60
2018-07-05T11:38:54.070Z,21.70
2018-07-05T11:41:33.937Z,21.60
2018-07-05T11:44:13.602Z,21.60
2018-07-05T11:46:53.454Z,21.60
2018-07-05T11:49:33.362Z,21.60
2018-07-05T11:52:12.903Z,21.50
2018-07-05T11:54:52.606Z,21.50
2018-07-05T11:57:32.180Z,21.60
2018-07-05T12:00:11.952Z,21.50
2018-07-05T12:02:51.653Z,21.50
2018-07-05T12:05:31.325Z,21.40
2018-07-05T12:08:10.922Z,21.40
2018-07-05T12:10:50.640Z,21.50
2018-07-05T12:13:30.520Z,21.50
2018-07-05T12:18:44.226Z,21.50
2018-07-05T12:21:23.939Z,21.50
2018-07-05T12:24:03.720Z,21.40
2018-07-05T12:26:43.086Z,21.30
2018-07-05T12:29:22.835Z,21.30
2018-07-05T12:32:02.701Z,21.40
2018-07-05T12:34:42.554Z,21.40
2018-07-05T12:37:22.333Z,21.50
2018-07-05T12:40:02.151Z,21.50
2018-07-05T12:42:41.595Z,21.50
2018-07-05T12:45:21.247Z,21.50
2018-07-05T12:48:00.847Z,21.50
2018-07-05T12:50:40.691Z,21.50
2018-07-05T12:53:20.569Z,21.60
2018-07-05T12:56:00.471Z,21.60
2018-07-05T12:58:40.057Z,21.50
2018-07-05T13:01:19.777Z,21.50
2018-07-05T13:03:59.479Z,21.50
2018-07-05T13:06:39.075Z,21.60
2018-07-05T13:09:18.750Z,21.60
2018-07-05T13:11:58.342Z,21.60
2018-07-05T13:14:37.984Z,21.70
2018-07-05T13:17:17.755Z,21.60
2018-07-05T13:19:57.310Z,21.60
2018-07-05T13:22:36.897Z,21.60
2018-07-05T13:25:16.672Z,21.60
2018-07-05T13:27:56.205Z,21.70
2018-07-05T13:30:35.708Z,21.70
2018-07-05T13:33:15.459Z,21.50
2018-07-05T13:35:55.126Z,21.50
2018-07-05T13:38:34.930Z,21.50
2018-07-05T13:41:14.893Z,21.50
2018-07-05T13:43:54.754Z,21.50
2018-07-05T13:46:34.392Z,21.60
2018-07-05T13:49:14.070Z,21.60
2018-07-05T13:51:53.790Z,21.60
2018-07-05T13:54:33.463Z,21.60
2018-07-05T13:57:13.458Z,21.60
2018-07-05T13:59:53.129Z,21.50
2018-07-05T14:02:32.872Z,21.50
2018-07-05T14:05:12.527Z,21.40
2018-07-05T14:07:52.084Z,21.40
2018-07-05T14:10:31.679Z,21.40
2018-07-05T14:13:11.329Z,21.50
2018-07-05T14:15:51.084Z,21.40
2018-07-05T14:18:30.827Z,21.40
2018-07-05T14:21:10.342Z,21.40
2018-07-05T14:23:50.121Z,21.30
2018-07-05T14:26:29.590Z,21.20
2018-07-05T14:29:09.250Z,21.20
2018-07-05T14:31:48.994Z,21.10
2018-07-05T14:34:28.650Z,21.10
2018-07-05T14:37:08.306Z,21.10
2018-07-05T14:39:47.841Z,21.10
2018-07-05T14:42:27.440Z,21.20
2018-07-05T14:45:07.175Z,21.20
2018-07-05T14:47:46.850Z,21.10
2018-07-05T14:50:26.610Z,21.10
2018-07-05T14:53:06.358Z,21.00
2018-07-05T14:55:46.028Z,21.10
2018-07-05T14:58:25.700Z,21.20
2018-07-05T15:01:05.549Z,21.20
2018-07-05T15:03:45.317Z,21.20
2018-07-05T15:06:25.343Z,21.00
2018-07-05T15:09:05.683Z,21.00
2018-07-05T15:11:45.337Z,21.10
2018-07-05T15:14:24.997Z,21.20
2018-07-05T15:17:04.822Z,21.20
2018-07-05T15:19:44.588Z,21.20
2018-07-05T15:22:24.285Z,21.20
2018-07-05T15:25:03.782Z,21.10
2018-07-05T15:27:43.878Z,21.10
2018-07-05T15:30:23.532Z,21.20
2018-07-05T15:33:03.203Z,21.20
2018-07-05T15:35:43.118Z,21.20
2018-07-05T15:38:22.754Z,21.10
2018-07-05T15:41:02.489Z,20.90
2018-07-05T15:43:42.439Z,20.90
2018-07-05T15:46:21.927Z,21.00
2018-07-05T15:49:01.678Z,21.00
2018-07-05T15:51:41.358Z,21.00
2018-07-05T15:54:21.522Z,21.10
2018-07-05T15:57:01.298Z,21.10
2018-07-05T15:59:41.689Z,21.10
2018-07-05T16:02:21.322Z,21.10
2018-07-05T16:05:01.066Z,21.10
2018-07-05T16:07:40.774Z,21.10
2018-07-05T16:10:20.470Z,21.10
2018-07-05T16:12:59.912Z,21.10
2018-07-05T16:15:39.753Z,21.10
2018-07-05T16:18:19.358Z,21.10
2018-07-05T16:20:58.948Z,21.10
2018-07-05T16:23:38.618Z,21.10
2018-07-05T16:26:18.222Z,21.10
2018-07-05T16:28:58.007Z,21.10
2018-07-05T16:31:37.746Z,21.10
2018-07-05T16:34:17.512Z,21.10
2018-07-05T16:36:57.123Z,21.10
2018-07-05T16:39:37.361Z,21.20
2018-07-05T16:42:17.072Z,21.20
2018-07-05T16:44:57.022Z,21.20
2018-07-05T16:47:36.598Z,21.20
2018-07-05T16:50:16.211Z,21.20
2018-07-05T16:52:55.869Z,21.10
2018-07-05T16:55:35.578Z,21.00
2018-07-05T16:58:15.204Z,21.00
2018-07-05T17:00:54.930Z,21.00
2018-07-05T17:03:34.665Z,21.00
2018-07-05T17:06:14.364Z,21.00
2018-07-05T17:08:54.083Z,20.90
2018-07-05T17:11:33.724Z,21.00
2018-07-05T17:14:13.423Z,21.00
2018-07-05T17:16:53.195Z,21.00
2018-07-05T17:19:33.006Z,21.00
2018-07-05T17:22:12.674Z,21.00
2018-07-05T17:24:52.455Z,20.90
2018-07-05T17:27:32.095Z,20.90
2018-07-05T17:30:12.171Z,21.00
2018-07-05T17:32:51.774Z,21.00
2018-07-05T17:35:31.263Z,21.00
2018-07-05T17:38:11.002Z,21.00
2018-07-05T17:40:50.761Z,21.00
2018-07-05T17:43:30.580Z,21.00
2018-07-05T17:46:10.352Z,21.00
2018-07-05T17:48:49.817Z,21.00
2018-07-05T17:51:29.650Z,21.00
2018-07-05T17:54:09.201Z,21.00
2018-07-05T17:56:48.954Z,21.00
2018-07-05T17:59:28.511Z,21.00
2018-07-05T18:02:08.326Z,21.00
2018-07-05T18:04:47.791Z,21.00
2018-07-05T18:07:27.673Z,21.00
2018-07-05T18:10:07.254Z,21.00
2018-07-05T18:12:46.906Z,21.00
2018-07-05T18:15:26.430Z,21.00
2018-07-05T18:18:06.191Z,21.00
2018-07-05T18:20:45.833Z,21.00
2018-07-05T18:23:25.466Z,21.00
2018-07-05T18:26:05.143Z,21.00
2018-07-05T18:28:44.686Z,21.00
2018-07-05T18:31:24.455Z,20.90
2018-07-05T18:34:04.363Z,20.90
2018-07-05T18:36:44.025Z,20.90
2018-07-05T18:39:23.814Z,20.90
2018-07-05T18:42:03.278Z,20.90
2018-07-05T18:44:43.196Z,20.90
2018-07-05T18:47:22.819Z,20.90
2018-07-05T18:50:02.642Z,20.90
2018-07-05T18:52:42.462Z,20.90
2018-07-05T18:55:22.146Z,20.90
2018-07-05T18:58:01.783Z,20.90
2018-07-05T19:00:41.538Z,20.90
2018-07-05T19:03:21.126Z,20.90
2018-07-05T19:06:00.819Z,20.90
2018-07-05T19:08:40.943Z,20.80
2018-07-05T19:11:20.472Z,20.90
2018-07-05T19:14:00.251Z,20.80
2018-07-05T19:16:39.837Z,20.90
2018-07-05T19:19:19.354Z,20.80
2018-07-05T19:21:58.981Z,20.80
2018-07-05T19:24:38.841Z,20.80
2018-07-05T19:27:18.428Z,20.80
2018-07-05T19:29:58.228Z,20.80
2018-07-05T19:32:37.842Z,20.80
2018-07-05T19:35:17.667Z,20.80
2018-07-05T19:37:57.397Z,20.80
2018-07-05T19:40:37.158Z,20.80
2018-07-05T19:45:50.492Z,20.80
2018-07-05T19:48:30.210Z,20.80
2018-07-05T19:51:09.966Z,20.70
2018-07-05T19:53:49.697Z,20.70
2018-07-05T19:56:29.363Z,20.70
2018-07-05T19:59:09.145Z,20.70
2018-07-05T20:01:48.786Z,20.70
2018-07-05T20:04:28.513Z,20.70
2018-07-05T20:07:08.150Z,20.70
2018-07-05T20:09:47.734Z,20.70
2018-07-05T20:12:27.410Z,20.70
2018-07-05T20:15:07.161Z,20.60
2018-07-05T20:17:46.633Z,20.60
2018-07-05T20:20:26.542Z,20.60
2018-07-05T20:23:06.333Z,20.60
2018-07-05T20:25:46.010Z,20.60
2018-07-05T20:28:25.629Z,20.60
2018-07-05T20:31:05.290Z,20.60
2018-07-05T20:33:44.935Z,20.60
2018-07-05T20:36:24.559Z,20.60
2018-07-05T20:39:05.182Z,20.50
2018-07-05T20:41:44.869Z,20.50
2018-07-05T20:44:24.290Z,20.60
2018-07-05T20:47:03.941Z,20.50
2018-07-05T20:49:43.762Z,20.50
2018-07-05T20:52:23.597Z,20.50
2018-07-05T20:55:03.061Z,20.50
2018-07-05T20:57:42.732Z,20.50
2018-07-05T21:00:22.481Z,20.50
2018-07-05T21:03:02.048Z,20.50
2018-07-05T21:05:41.770Z,20.50
2018-07-05T21:08:21.459Z,20.50
2018-07-05T21:11:01.049Z,20.50
2018-07-05T21:13:40.840Z,20.50
2018-07-05T21:16:20.542Z,20.40
2018-07-05T21:19:00.217Z,20.50
2018-07-05T21:21:39.861Z,20.50
2018-07-05T21:24:19.498Z,20.50
2018-07-05T21:26:59.426Z,20.40
2018-07-05T21:29:39.199Z,20.40
2018-07-05T21:32:18.939Z,20.40
2018-07-05T21:34:58.815Z,20.40
2018-07-05T21:37:38.414Z,20.40
2018-07-05T21:40:18.172Z,20.40
2018-07-05T21:42:57.889Z,20.40
2018-07-05T21:45:37.512Z,20.40
2018-07-05T21:48:17.293Z,20.40
2018-07-05T21:50:57.140Z,20.40
2018-07-05T21:53:36.570Z,20.40
2018-07-05T21:56:16.315Z,20.40
2018-07-05T21:58:56.050Z,20.40
2018-07-05T22:01:35.563Z,20.40
2018-07-05T22:04:15.116Z,20.40
2018-07-05T22:06:54.878Z,20.30
2018-07-05T22:09:34.597Z,20.30
2018-07-05T22:12:14.420Z,20.30
2018-07-05T22:14:54.215Z,20.30
2018-07-05T22:17:40.098Z,20.30
2018-07-05T22:20:25.133Z,20.30
2018-07-05T22:23:10.593Z,20.70
2018-07-05T22:25:55.899Z,21.30
2018-07-05T22:28:41.209Z,21.80
2018-07-05T22:31:26.470Z,22.10
2018-07-05T22:34:06.119Z,22.30
2018-07-05T22:36:45.836Z,22.60
2018-07-05T22:39:25.565Z,22.90
2018-07-05T22:42:05.250Z,23.10
2018-07-05T22:44:44.765Z,23.30
2018-07-05T22:47:24.520Z,23.40
2018-07-05T22:50:03.918Z,23.40
2018-07-05T22:52:43.587Z,23.40
2018-07-05T22:55:23.354Z,23.40
2018-07-05T22:58:02.985Z,23.40
2018-07-05T23:00:42.694Z,23.40
2018-07-05T23:03:22.258Z,23.40
2018-07-05T23:06:01.647Z,23.40
2018-07-05T23:08:41.358Z,23.30
2018-07-05T23:11:21.203Z,23.30
2018-07-05T23:14:00.803Z,23.30
2018-07-05T23:16:40.328Z,23.30
2018-07-05T23:19:20.979Z,23.30
2018-07-05T23:22:00.652Z,23.30
2018-07-05T23:24:40.369Z,23.30
2018-07-05T23:27:20.166Z,23.20
2018-07-05T23:29:59.919Z,23.20
2018-07-05T23:35:13.120Z,23.20
2018-07-05T23:37:52.778Z,23.10
2018-07-05T23:40:32.466Z,23.10
2018-07-05T23:43:12.057Z,23.10
2018-07-05T23:45:51.702Z,23.10
2018-07-05T23:48:31.430Z,23.10
2018-07-05T23:51:10.815Z,23.00
2018-07-05T23:53:50.454Z,23.00
2018-07-05T23:56:30.249Z,23.00
2018-07-05T23:59:09.891Z,23.00
